Flight Track Log - Related Links

Times and Time Zones

All times are in EDT time to prevent confusion due to time zone crossing. See the DAL1755 flight status page for this flight to view local times or setup timezone preferences in your user account.

Time Position Orientation Groundspeed Altitude Reporting Facility
EDT Latitude Longitude Course Direction KTS MPH feet Rate Location/Type
Fri 12:22:12 PM 33.6500 -84.3833 252° West 174 200 2,700  Level Atlanta TRACON
Fri 12:23:06 PM 33.6667 -84.3167 73° East 227 261 4,500 2,526 Climbing Atlanta TRACON
Fri 12:24:00 PM 33.8001 -84.3825 270° West  Level FlightAware Approximate
Fri 12:24:06 PM 33.7167 -84.2833 29° Northeast 289 333 7,500  Level Atlanta TRACON
Fri 12:25:00 PM 33.8000 -84.5264 270° West  Level FlightAware Approximate
Fri 12:25:49 PM 33.8106 -84.3914 316° Northwest 269 310 11,300  Level Atlanta Center
Fri 12:26:00 PM 33.7860 -84.6676 252° West  Level FlightAware Approximate
Fri 12:26:49 PM 33.8081 -84.5014 268° West 312 359 13,700  Level Atlanta Center
Fri 12:27:00 PM 33.7483 -84.8042 252° West  Level FlightAware Approximate
Fri 12:27:49 PM 33.8033 -84.6239 267° West 347 399 15,800  Level Atlanta Center
Fri 12:28:49 PM 33.7714 -84.7561 254° West 389 448 18,000 2,050 Climbing Atlanta Center
Fri 12:29:49 PM 33.7328 -84.8956 252° West 394 453 19,900 1,950 Climbing Atlanta Center
Fri 12:30:49 PM 33.7006 -85.0275 254° West 412 474 21,900 1,800 Climbing Atlanta Center
Fri 12:31:49 PM 33.6661 -85.1619 253° West 422 486 23,500 1,600 Climbing Atlanta Center
Fri 12:32:49 PM 33.6478 -85.3064 261° West 428 493 25,100 1,400 Climbing Atlanta Center
Fri 12:33:49 PM 33.6525 -85.4564 272° West 438 504 26,300 1,250 Climbing Atlanta Center
Fri 12:34:49 PM 33.6550 -85.6061 271° West 453 521 27,600 850 Climbing Atlanta Center
Fri 12:35:49 PM 33.6589 -85.7658 272° West 470 541 28,000 200 Climbing Atlanta Center
Fri 12:36:49 PM 33.6614 -85.8958 271° West 464 534 28,000  Level Atlanta Center
Fri 12:37:49 PM 33.6608 -86.0506 270° West 459 528 28,000 750 Level Atlanta Center
Fri 12:38:49 PM 33.6625 -86.2053 271° West 459 528 29,500 1,350 Climbing Atlanta Center
Fri 12:39:49 PM 33.6639 -86.3550 271° West 459 528 30,700 1,300 Climbing Atlanta Center
Fri 12:40:49 PM 33.6650 -86.5097 271° West 459 528 32,100 1,400 Climbing Atlanta Center
Fri 12:41:49 PM 33.6683 -86.6597 272° West 459 528 33,500 950 Climbing Atlanta Center
Fri 12:42:49 PM 33.6672 -86.8044 270° West 454 522 34,000 171 Climbing Atlanta Center
Fri 12:44:44 PM 33.7103 -87.0936 280° West 460 529 34,000  Level Memphis Center
Fri 12:45:44 PM 33.7414 -87.2547 283° West 460 529 34,000  Level Memphis Center
Fri 12:46:44 PM 33.7744 -87.4008 285° West 460 529 34,000  Level Memphis Center
Fri 12:47:44 PM 33.8067 -87.5322 286° West 460 529 34,000  Level Memphis Center
Fri 12:48:44 PM 33.8350 -87.6839 283° West 455 524 34,000  Level Memphis Center
Fri 12:49:44 PM 33.8675 -87.8456 284° West 455 524 34,000  Level Memphis Center
Fri 12:50:44 PM 33.8997 -87.9897 285° West 455 524 34,000  Level Memphis Center
Fri 12:51:44 PM 33.9294 -88.1417 283° West 455 524 34,000  Level Memphis Center
Fri 12:52:44 PM 33.9572 -88.2936 282° West 466 536 34,000  Level Memphis Center
Fri 12:53:44 PM 33.9889 -88.4431 284° West 466 536 34,000  Level Memphis Center
Fri 12:54:44 PM 34.0056 -88.5931 278° West 466 536 34,000  Level Memphis Center
Fri 12:55:44 PM 34.0222 -88.7431 278° West 461 531 34,000  Level Memphis Center
Fri 12:56:44 PM 34.0408 -88.8883 279° West 452 520 34,000  Level Memphis Center
Fri 12:57:44 PM 34.0631 -89.0158 282° West 447 514 34,000  Level Memphis Center
Fri 12:58:44 PM 34.0875 -89.1658 281° West 447 514 34,000  Level Memphis Center
Fri 12:59:44 PM 34.1161 -89.3108 283° West 447 514 34,000  Level Memphis Center
Fri 01:00:44 PM 34.1528 -89.4536 287° West 447 514 34,000  Level Memphis Center
Fri 01:01:44 PM 34.1933 -89.5989 289° West 459 528 34,000  Level Memphis Center
Fri 01:02:44 PM 34.2422 -89.7567 291° West 464 534 34,000  Level Memphis Center
Fri 01:03:44 PM 34.2803 -89.9022 288° West 464 534 34,000  Level Memphis Center
Fri 01:04:44 PM 34.3058 -90.0528 282° West 458 527 34,000  Level Memphis Center
Fri 01:05:44 PM 34.3353 -90.2011 284° West 458 527 34,000  Level Memphis Center
Fri 01:06:44 PM 34.3625 -90.3547 282° West 458 527 34,000  Level Memphis Center
Fri 01:07:44 PM 34.3897 -90.5056 282° West 463 533 34,000  Level Memphis Center
Fri 01:08:44 PM 34.4164 -90.6592 282° West 468 539 34,000  Level Memphis Center
Fri 01:09:44 PM 34.4411 -90.7953 282° West 468 539 34,000  Level Memphis Center
Fri 01:10:44 PM 34.4678 -90.9492 282° West 468 539 34,000  Level Memphis Center
Fri 01:11:44 PM 34.4961 -91.1031 283° West 467 537 34,000  Level Memphis Center
Fri 01:12:44 PM 34.5264 -91.2597 283° West 472 543 34,000  Level Memphis Center
Fri 01:13:44 PM 34.5503 -91.4061 281° West 465 535 34,000  Level Memphis Center
Fri 01:14:44 PM 34.5717 -91.5628 279° West 447 514 34,000  Level Memphis Center
Fri 01:15:44 PM 34.5994 -91.7044 283° West 442 509 34,000  Level Memphis Center
Fri 01:16:44 PM 34.6192 -91.8233 281° West 419 482 34,000  Level Memphis Center
Fri 01:17:44 PM 34.6403 -91.9625 280° West 419 482 34,000  Level Memphis Center
Fri 01:18:44 PM 34.6656 -92.1019 282° West 419 482 34,000  Level Memphis Center
Fri 01:19:44 PM 34.6989 -92.2492 285° West 432 497 34,000  Level Memphis Center
Fri 01:20:44 PM 34.7508 -92.3892 294° West 444 511 34,000  Level Memphis Center
Fri 01:21:44 PM 34.8028 -92.5372 293° West 455 524 34,000  Level Memphis Center
Fri 01:22:44 PM 34.8522 -92.6878 292° West 468 539 34,000  Level Memphis Center
Fri 01:23:44 PM 34.9075 -92.8489 293° West 468 539 34,000  Level Memphis Center
Fri 01:24:44 PM 34.9586 -92.9972 293° West 473 544 34,000  Level Memphis Center
Fri 01:25:44 PM 35.0078 -93.1408 293° West 478 550 34,000  Level Memphis Center
Fri 01:26:44 PM 35.0586 -93.2897 293° West 478 550 34,000  Level Memphis Center
Fri 01:27:44 PM 35.1072 -93.4361 292° West 478 550 34,000  Level Memphis Center
Fri 01:28:44 PM 35.1578 -93.5825 293° West 478 550 34,000  Level Memphis Center
Fri 01:29:44 PM 35.2061 -93.7267 292° West 467 537 34,000  Level Memphis Center
Fri 01:30:44 PM 35.2542 -93.8736 292° West 467 537 34,000  Level Memphis Center
Fri 01:31:44 PM 35.3019 -94.0181 292° West 462 532 34,000  Level Memphis Center
Fri 01:32:44 PM 35.3478 -94.1600 292° West 457 526 34,000  Level Memphis Center
Fri 01:33:44 PM 35.3933 -94.3072 291° West 457 526 34,000  Level Memphis Center
Fri 01:36:04 PM 35.4656 -94.6558 284° West 458 527 34,000  Level Fort Worth Center
Fri 01:37:04 PM 35.4939 -94.8028 283° West 452 520 34,000  Level Fort Worth Center
Fri 01:38:04 PM 35.5219 -94.9525 283° West 452 520 34,000  Level Fort Worth Center
Fri 01:39:03 PM 35.5497 -95.1022 283° West 452 520 34,000  Level Fort Worth Center
Fri 01:40:04 PM 35.5794 -95.2544 284° West 452 520 34,000  Level Fort Worth Center
Fri 01:41:04 PM 35.6069 -95.4044 283° West 452 520 34,000  Level Fort Worth Center
Fri 01:42:04 PM 35.6364 -95.5544 284° West 447 514 34,000  Level Fort Worth Center
Fri 01:42:49 PM 35.6522 -95.6422 283° West 453 521 34,000  Level Kansas City Center
Fri 01:43:51 PM 35.6847 -95.8242 282° West 452 520 34,000  Level Kansas City Center
Fri 01:44:53 PM 35.7131 -95.9781 283° West 456 525 34,000  Level Kansas City Center
Fri 01:45:55 PM 35.7386 -96.1217 282° West 456 525 34,000  Level Kansas City Center
Fri 01:46:57 PM 35.7656 -96.2708 283° West 452 520 34,000  Level Kansas City Center
Fri 01:47:59 PM 35.7869 -96.4219 270° West 452 520 34,000  Level Kansas City Center
Fri 01:48:00 PM 35.7648 -96.4254 270° West  Level FlightAware Approximate
Fri 01:49:01 PM 35.7872 -96.6025 270° West 445 512 34,000  Level Kansas City Center
Fri 01:50:03 PM 35.7878 -96.7531 270° West 442 509 34,000  Level Kansas City Center
Fri 01:51:05 PM 35.7878 -96.9042 270° West 444 511 34,000  Level Kansas City Center
Fri 01:52:07 PM 35.7867 -97.0558 270° West 446 513 34,000  Level Kansas City Center
Fri 01:52:27 PM 35.7853 -97.1269 269° West 441 507 34,000  Level Fort Worth Center
Fri 01:53:27 PM 35.7836 -97.2756 269° West 441 507 34,000  Level Fort Worth Center
Fri 01:54:27 PM 35.7836 -97.4136 270° West 441 507 34,000  Level Fort Worth Center
Fri 01:55:00 PM 35.7545 -97.4559 270° West  Level FlightAware Approximate
Fri 01:55:27 PM 35.7814 -97.5644 269° West 441 507 34,000  Level Fort Worth Center
Fri 01:56:27 PM 35.7792 -97.7103 269° West 441 507 34,000  Level Fort Worth Center
Fri 01:57:27 PM 35.7786 -97.8586 270° West 441 507 34,000  Level Fort Worth Center
Fri 01:58:27 PM 35.7758 -98.0122 269° West 441 507 34,000  Level Fort Worth Center
Fri 01:59:27 PM 35.7750 -98.1631 270° West 441 507 34,000  Level Fort Worth Center
Fri 02:00:27 PM 35.7700 -98.3089 268° West 441 507 34,000  Level Fort Worth Center
Fri 02:01:27 PM 35.7689 -98.4597 270° West 441 507 34,000  Level Fort Worth Center
Fri 02:02:27 PM 35.7675 -98.6081 269° West 441 507 34,000  Level Fort Worth Center
Fri 02:03:27 PM 35.7639 -98.7564 268° West 441 507 34,000  Level Fort Worth Center
Fri 02:04:27 PM 35.7622 -98.9022 269° West 435 501 34,000  Level Fort Worth Center
Fri 02:05:27 PM 35.7561 -99.0478 267° West 435 501 34,000  Level Fort Worth Center
Fri 02:06:27 PM 35.7542 -99.1961 269° West 435 501 34,000  Level Fort Worth Center
Fri 02:07:27 PM 35.7500 -99.3394 268° West 435 501 34,000  Level Fort Worth Center
Fri 02:09:17 PM 35.7431 -99.6125 268° West 425 489 34,000  Level Albuquerque Center
Fri 02:10:19 PM 35.7383 -99.7553 268° West 422 486 34,000  Level Albuquerque Center
Fri 02:11:21 PM 35.7333 -99.8981 268° West 419 482 34,000  Level Albuquerque Center
Fri 02:12:23 PM 35.7297 -100.0397 268° West 417 480 34,000  Level Albuquerque Center
Fri 02:13:25 PM 35.7244 -100.2103 268° West 417 480 34,000  Level Albuquerque Center
Fri 02:14:27 PM 35.7189 -100.3506 267° West 413 475 34,000  Level Albuquerque Center
Fri 02:15:28 PM 35.7142 -100.4914 268° West 413 475 34,000  Level Albuquerque Center
Fri 02:16:30 PM 35.7103 -100.6339 268° West 417 480 34,000  Level Albuquerque Center
Fri 02:17:32 PM 35.7044 -100.7736 267° West 414 476 34,000  Level Albuquerque Center
Fri 02:18:34 PM 35.6994 -100.9150 268° West 415 478 34,000  Level Albuquerque Center
Fri 02:19:37 PM 35.6928 -101.0825 267° West 412 474 34,000  Level Albuquerque Center
Fri 02:20:38 PM 35.6872 -101.2225 267° West 412 474 34,000  Level Albuquerque Center
Fri 02:21:40 PM 35.6825 -101.3625 268° West 413 475 34,000  Level Albuquerque Center
Fri 02:22:42 PM 35.6756 -101.5019 267° West 413 475 34,000  Level Albuquerque Center
Fri 02:23:44 PM 35.6700 -101.6414 267° West 414 476 34,000  Level Albuquerque Center
Fri 02:24:46 PM 35.6642 -101.7808 267° West 413 475 34,000  Level Albuquerque Center
Fri 02:25:48 PM 35.6561 -101.9481 267° West 414 476 34,000  Level Albuquerque Center
Fri 02:26:49 PM 35.6500 -102.0903 267° West 417 480 34,000  Level Albuquerque Center
Fri 02:27:51 PM 35.6425 -102.2319 266° West 419 482 34,000  Level Albuquerque Center
Fri 02:28:53 PM 35.6364 -102.3747 267° West 421 484 34,000  Level Albuquerque Center
Fri 02:29:55 PM 35.6283 -102.5178 266° West 421 484 34,000  Level Albuquerque Center
Fri 02:30:57 PM 35.6183 -102.6894 266° West 422 486 34,000  Level Albuquerque Center
Fri 02:31:59 PM 35.6119 -102.8339 267° West 425 489 34,000  Level Albuquerque Center
Fri 02:33:01 PM 35.6050 -102.9761 267° West 425 489 34,000  Level Albuquerque Center
Fri 02:34:02 PM 35.5964 -103.1228 266° West 427 491 34,000  Level Albuquerque Center
Fri 02:35:04 PM 35.5861 -103.2697 265° West 428 493 34,000  Level Albuquerque Center
Fri 02:36:06 PM 35.5797 -103.4169 267° West 429 494 34,000  Level Albuquerque Center
Fri 02:37:08 PM 35.5694 -103.5892 266° West 431 496 34,000  Level Albuquerque Center
Fri 02:38:10 PM 35.5606 -103.7356 266° West 429 494 34,000  Level Albuquerque Center
Fri 02:39:11 PM 35.5514 -103.8828 266° West 430 495 34,000  Level Albuquerque Center
Fri 02:40:13 PM 35.5428 -104.0292 266° West 430 495 34,000  Level Albuquerque Center
Fri 02:41:15 PM 35.5344 -104.1750 266° West 430 495 34,000  Level Albuquerque Center
Fri 02:42:17 PM 35.5244 -104.3208 265° West 430 495 34,000  Level Albuquerque Center
Fri 02:43:19 PM 35.5122 -104.4914 265° West 430 495 34,000  Level Albuquerque Center
Fri 02:44:20 PM 35.5019 -104.6386 265° West 432 497 34,000  Level Albuquerque Center
Fri 02:45:22 PM 35.4928 -104.7875 266° West 434 499 34,000  Level Albuquerque Center
Fri 02:46:24 PM 35.4814 -104.9375 265° West 438 504 34,000  Level Albuquerque Center
Fri 02:47:26 PM 35.4703 -105.0864 265° West 436 502 34,000  Level Albuquerque Center
Fri 02:48:28 PM 35.4597 -105.2347 265° West 434 499 34,000  Level Albuquerque Center
Fri 02:49:30 PM 35.4494 -105.3836 265° West 434 499 34,000  Level Albuquerque Center
Fri 02:50:31 PM 35.4375 -105.5325 264° West 434 499 34,000  Level Albuquerque Center
Fri 02:51:33 PM 35.4219 -105.7067 264° West 437 503 34,000  Level Albuquerque Center
Fri 02:52:35 PM 35.4122 -105.8569 266° West 438 504 34,000  Level Albuquerque Center
Fri 02:53:37 PM 35.4022 -105.9914 265° West 442 509 34,000  Level Albuquerque Center
Fri 02:54:39 PM 35.3900 -106.1403 264° West 441 507 34,000  Level Albuquerque Center
Fri 02:55:40 PM 35.3758 -106.3203 265° West 443 510 34,000  Level Albuquerque Center
Fri 02:56:42 PM 35.3633 -106.4689 264° West 441 507 34,000  Level Albuquerque Center
Fri 02:57:44 PM 35.3522 -106.6103 265° West 443 510 34,000  Level Albuquerque Center
Fri 02:58:46 PM 35.3389 -106.7772 264° West 442 509 34,000  Level Albuquerque Center
Fri 02:59:48 PM 35.3239 -106.9228 263° West 447 514 34,000  Level Albuquerque Center
Fri 03:00:50 PM 35.3097 -107.0892 264° West 441 507 34,000  Level Albuquerque Center
Fri 03:01:52 PM 35.2961 -107.2425 264° West 449 517 34,000  Level Albuquerque Center
Fri 03:02:53 PM 35.2814 -107.3928 263° West 450 518 34,000  Level Albuquerque Center
Fri 03:03:55 PM 35.2669 -107.5478 264° West 445 512 34,000  Level Albuquerque Center
Fri 03:04:57 PM 35.2514 -107.7172 264° West 447 514 34,000  Level Albuquerque Center
Fri 03:05:59 PM 35.2356 -107.8633 262° West 450 518 34,000  Level Albuquerque Center
Fri 03:07:01 PM 35.2225 -108.0086 264° West 449 517 34,000  Level Albuquerque Center
Fri 03:08:03 PM 35.2064 -108.1769 263° West 446 513 34,000  Level Albuquerque Center
Fri 03:09:05 PM 35.1928 -108.3219 263° West 447 514 34,000  Level Albuquerque Center
Fri 03:10:07 PM 35.1769 -108.4919 264° West 448 516 34,000  Level Albuquerque Center
Fri 03:11:08 PM 35.1617 -108.6392 263° West 452 520 34,000  Level Albuquerque Center
Fri 03:12:10 PM 35.1436 -108.8081 263° West 450 518 34,000  Level Albuquerque Center
Fri 03:13:12 PM 35.1289 -108.9558 263° West 453 521 34,000  Level Albuquerque Center
Fri 03:14:14 PM 35.1136 -109.1003 263° West 449 517 34,000  Level Albuquerque Center
Fri 03:15:16 PM 35.0944 -109.2711 262° West 452 520 34,000  Level Albuquerque Center
Fri 03:16:18 PM 35.0781 -109.4175 262° West 453 521 34,000  Level Albuquerque Center
Fri 03:17:19 PM 35.0594 -109.5847 262° West 447 514 34,000  Level Albuquerque Center
Fri 03:18:21 PM 35.0422 -109.7311 262° West 450 518 34,000  Level Albuquerque Center
Fri 03:19:23 PM 35.0236 -109.9014 262° West 453 521 34,000  Level Albuquerque Center
Fri 03:20:25 PM 35.0072 -110.0478 262° West 454 522 34,000  Level Albuquerque Center
Fri 03:21:27 PM 34.9917 -110.1961 263° West 458 527 34,000  Level Albuquerque Center
Fri 03:22:28 PM 34.9711 -110.3661 262° West 454 522 34,000  Level Albuquerque Center
Fri 03:23:30 PM 34.9517 -110.5106 261° West 451 519 34,000  Level Albuquerque Center
Fri 03:24:32 PM 34.9333 -110.6822 263° West 455 524 34,000  Level Albuquerque Center
Fri 03:25:34 PM 34.9169 -110.8300 262° West 458 527 34,000  Level Albuquerque Center
Fri 03:26:36 PM 34.8964 -111.0011 262° West 457 526 34,000  Level Albuquerque Center
Fri 03:27:38 PM 34.8783 -111.1389 261° West 454 522 34,000  Level Albuquerque Center
Fri 03:28:39 PM 34.8594 -111.2908 261° West 455 524 34,000  Level Albuquerque Center
Fri 03:29:41 PM 34.8378 -111.4411 260° West 454 522 34,000  Level Albuquerque Center
Fri 03:30:43 PM 34.8150 -111.6225 261° West 455 524 34,000  Level Albuquerque Center
Fri 03:31:45 PM 34.7958 -111.7719 261° West 450 518 34,000  Level Albuquerque Center
Fri 03:32:47 PM 34.7778 -111.9203 262° West 446 513 34,000  Level Albuquerque Center
Fri 03:33:48 PM 34.7581 -112.0689 261° West 447 514 34,000  Level Albuquerque Center
Fri 03:34:50 PM 34.7381 -112.2150 261° West 442 509 34,000  Level Albuquerque Center
Fri 03:35:52 PM 34.7175 -112.3633 260° West 442 509 34,000  Level Albuquerque Center
Fri 03:36:54 PM 34.6983 -112.5083 261° West 439 505 34,000  Level Albuquerque Center
Fri 03:37:56 PM 34.6789 -112.6819 262° West 435 501 34,000  Level Albuquerque Center
Fri 03:38:58 PM 34.6617 -112.8272 262° West 435 501 34,000  Level Albuquerque Center
Fri 03:39:59 PM 34.6447 -112.9719 262° West 434 499 34,000  Level Albuquerque Center
Fri 03:41:01 PM 34.6272 -113.1147 262° West 430 495 34,000  Level Albuquerque Center
Fri 03:42:03 PM 34.6097 -113.2564 262° West 427 491 34,000  Level Albuquerque Center
Fri 03:43:05 PM 34.5919 -113.3972 261° West 425 489 34,000  Level Albuquerque Center
Fri 03:44:07 PM 34.5750 -113.5386 262° West 423 487 34,000  Level Albuquerque Center
Fri 03:45:09 PM 34.5494 -113.7050 259° West 425 489 34,000  Level Albuquerque Center
Fri 03:46:10 PM 34.5200 -113.8450 256° West 426 490 34,000  Level Albuquerque Center
Fri 03:47:12 PM 34.4903 -113.9858 256° West 429 494 34,000  Level Albuquerque Center
Fri 03:48:14 PM 34.4689 -114.1281 260° West 428 493 34,000  Level Albuquerque Center
Fri 03:48:37 PM 34.4600 -114.1911 260° West 432 497 34,000  Level Los Angeles Center
Fri 03:49:39 PM 34.4372 -114.3331 259° West 431 496 34,000  Level Los Angeles Center
Fri 03:50:42 PM 34.4133 -114.4747 258° West 432 497 34,000  Level Los Angeles Center
Fri 03:51:44 PM 34.3969 -114.6181 262° West 430 495 34,000  Level Los Angeles Center
Fri 03:52:46 PM 34.3797 -114.7906 263° West 433 498 34,000  Level Los Angeles Center
Fri 03:53:48 PM 34.3650 -114.9361 263° West 434 499 34,000  Level Los Angeles Center
Fri 03:54:50 PM 34.3492 -115.0822 263° West 439 505 34,000  Level Los Angeles Center
Fri 03:55:52 PM 34.3319 -115.2275 262° West 438 504 34,000  Level Los Angeles Center
Fri 03:56:54 PM 34.3161 -115.3747 263° West 441 507 34,000  Level Los Angeles Center
Fri 03:57:56 PM 34.2958 -115.5503 262° West 442 509 34,000  Level Los Angeles Center
Fri 03:58:58 PM 34.2794 -115.6953 262° West 438 504 34,000  Level Los Angeles Center
Fri 04:00:00 PM 34.2628 -115.8383 262° West 435 501 34,000  Level Los Angeles Center
Fri 04:01:03 PM 34.2450 -115.9939 262° West 431 496 34,000 -240 Level Los Angeles Center
Fri 04:02:05 PM 34.2289 -116.1375 262° West 432 497 33,500 -919 Descending Los Angeles Center
Fri 04:03:07 PM 34.2114 -116.2808 262° West 432 497 32,100 -1,548 Descending Los Angeles Center
Fri 04:04:09 PM 34.1922 -116.4300 261° West 444 511 30,300 -2,081 Descending Los Angeles Center
Fri 04:05:11 PM 34.1744 -116.5744 262° West 439 505 27,800 -2,226 Descending Los Angeles Center
Fri 04:06:13 PM 34.1578 -116.7114 262° West 416 479 25,700 -2,274 Descending Los Angeles Center
Fri 04:07:15 PM 34.1392 -116.8650 262° West 390 449 23,100 -2,288 Descending Los Angeles Center
Fri 04:08:11 PM 34.1167 -116.9833 257° West 374 430 21,200 -2,066 Descending Southern California TRACON
Fri 04:09:17 PM 34.1000 -117.1167 261° West 365 420 18,900 -2,000 Descending Southern California TRACON
Fri 04:10:17 PM 34.0667 -117.2167 248° West 360 414 17,000 -1,900 Descending Southern California TRACON
Fri 04:11:17 PM 34.0333 -117.3333 251° West 344 396 15,100 -1,884 Descending Southern California TRACON
Fri 04:12:18 PM 34.0333 -117.4500 270° West 336 387 13,200 -1,884 Descending Southern California TRACON
Fri 04:13:18 PM 34.0167 -117.5500 259° West 349 402 11,300 -1,600 Descending Southern California TRACON
Fri 04:14:18 PM 34.0167 -117.6667 270° West 331 381 10,000 -1,100 Descending Southern California TRACON
Fri 04:15:18 PM 34.0000 -117.7667 259° West 293 337 9,100 -1,250 Descending Southern California TRACON
Fri 04:16:18 PM 33.9833 -117.8667 259° West 296 341 7,500 -1,500 Descending Southern California TRACON
Fri 04:17:18 PM 33.9833 -117.9667 270° West 282 325 6,100 -1,200 Descending Southern California TRACON
Fri 04:18:18 PM 33.9667 -118.0500 256° West 264 304 5,100 -850 Descending Southern California TRACON
Fri 04:19:18 PM 33.9667 -118.1333 270° West 245 282 4,400 -795 Descending Southern California TRACON
Fri 04:19:41 PM 33.9589 -118.1667 254° West 256 295 4,000 -1,200 Descending Los Angeles Center
Fri 04:20:43 PM 33.9519 -118.2342 263° West 223 257 2,700 -1,258 Descending Los Angeles Center

Login

Don't have an account? Register now (free) for customized features, flight alerts, and more!